Historique des mesures à Cassis (13260), France
Quotidien Résumé Janvier 5, 2021 Unités:  Métrique    US   Métrique/US
Quotidien Hebdomadaire Mensuel Annuel
  Maximum: Minimum: Moyenne:
Température: 16.1 °C 8.8 °C 11.7 °C
Point de rosée: 6.7 °C 0.3 °C 3.1 °C
Humidité: 62% 49% 56%
Vitesse du vent: 18.4km/h 0km/h 8.1km/h
Rafales: 20.5km/h - -
Vent- - WNW
Pression: 1018.3 hPa 1010.4 hPa -
Précipitations: 0.5 mm    
Historical Graphs
 
 
Mesures pour : Janvier 5, 2021
Heure Temperature Point de rosée Pression Vent Vitesse du vent Rafales Humidité Pluie (par heure)
00:10 8.8 °C 1 °C 1010.6 hPa WNW 5.8 km/h 9.7 km/h 58% 0.0 mm
01:11 9.3 °C 0.7 °C 1010.8 hPa WNW 2.5 km/h 10.1 km/h 55% 0.0 mm
02:10 9.5 °C 0.4 °C 1010.4 hPa Calm   14 km/h 53% 0.0 mm
03:11 8.9 °C 0.3 °C 1010.8 hPa NW 3.6 km/h 14.8 km/h 55% 0.0 mm
04:10 8.9 °C 0.8 °C 1010.8 hPa NW 7.2 km/h 15.8 km/h 57% 0.0 mm
05:11 8.9 °C 0.6 °C 1011.2 hPa NW 16.9 km/h 20.5 km/h 56% 0.0 mm
06:10 9 °C 0.7 °C 1011.6 hPa North 18.4 km/h 18.4 km/h 56% 0.0 mm
07:11 8.8 °C 0.5 °C 1011.8 hPa NNW 4.3 km/h 18.4 km/h 56% 0.0 mm
08:10 9.6 °C 1 °C 1012.8 hPa NNW 3.6 km/h 14.8 km/h 55% 0.0 mm
09:11 11.4 °C 2.1 °C 1013.4 hPa NNW 9.7 km/h 15.8 km/h 53% 0.0 mm
10:10 12.1 °C 2.5 °C 1014.1 hPa NNW 11.9 km/h 15.1 km/h 52% 0.0 mm
11:11 13.6 °C 3.9 °C 1014.5 hPa WNW 9 km/h 18 km/h 52% 0.0 mm
12:10 13.8 °C 4.6 °C 1014.1 hPa WNW 12.6 km/h 15.5 km/h 54% 0.0 mm
13:11 14.2 °C 5.5 °C 1014.3 hPa Calm   10.1 km/h 56% 0.5 mm
14:10 15.5 °C 6.7 °C 1014.3 hPa West 2.5 km/h 3.2 km/h 56% 0.0 mm
15:11 15.9 °C 6.3 °C 1014.6 hPa WNW 9.7 km/h 9.7 km/h 53% 0.0 mm
16:10 16.1 °C 5.4 °C 1014.7 hPa WNW 16.9 km/h 16.9 km/h 49% 0.0 mm
17:11 14.4 °C 5.2 °C 1015.1 hPa WNW 12.6 km/h 19.1 km/h 54% 0.0 mm
18:10 13.4 °C 5 °C 1015.6 hPa NW 11.2 km/h 16.9 km/h 57% 0.0 mm
19:11 12.2 °C 4.9 °C 1016.3 hPa WNW 8.3 km/h 11.9 km/h 61% 0.0 mm
20:10 11.8 °C 4.7 °C 1016.9 hPa NW 6.1 km/h 12.2 km/h 62% 0.0 mm
21:11 11.3 °C 4.3 °C 1017.5 hPa WNW 5.4 km/h 10.8 km/h 62% 0.0 mm
22:10 10.9 °C 3.9 °C 1017.9 hPa NW 6.1 km/h 15.8 km/h 62% 0.0 mm
23:11 11.3 °C 3.8 °C 1018.3 hPa NNW 10.4 km/h 16.9 km/h 60% 0.0 mm
Observations météo à CASSIS
WU-History script by Weather Underground - 2 mb